Time;durP1;ratioP1;P1;durP2;ratioP2;P2;SDS_P1;SDS_P2;PMS_P1;PMS_P2;Temp;Humidity;BMP_temperature;BMP_pressure;BME280_temperature;BME280_humidity;BME280_pressure;Samples;Min_cycle;Max_cycle;Signal;HPM_P1;HPM_P2
2021/01/01 00:01:38;;;;;;;103.60;55.73;;;;;;;;;;4403668;32;20236;-57
2021/01/01 00:04:06;;;;;;;82.63;44.47;;;;;;;;;;4403334;32;20234;-57
2021/01/01 00:06:31;;;;;;;136.13;65.83;;;;;;;;;;4402240;32;20556;-57
2021/01/01 00:08:57;;;;;;;51.57;28.67;;;;;;;;;;4403472;32;20266;-57
2021/01/01 00:11:23;;;;;;;31.63;17.77;;;;;;;;;;4403782;32;20315;-57
2021/01/01 00:13:49;;;;;;;36.60;23.73;;;;;;;;;;4403549;32;20720;-57
2021/01/01 00:16:15;;;;;;;53.53;28.30;;;;;;;;;;4403356;32;20308;-57
2021/01/01 00:18:41;;;;;;;56.60;31.43;;;;;;;;;;4403097;32;20228;-57
2021/01/01 00:21:08;;;;;;;48.87;28.73;;;;;;;;;;4403400;32;20266;-57
2021/01/01 00:23:34;;;;;;;44.10;27.00;;;;;;;;;;4403267;32;20719;-57
2021/01/01 00:26:00;;;;;;;46.43;26.87;;;;;;;;;;4403086;32;20314;-57
2021/01/01 00:28:26;;;;;;;57.67;33.70;;;;;;;;;;4402821;32;20288;-57
2021/01/01 00:30:52;;;;;;;52.33;32.83;;;;;;;;;;4402845;32;20214;-57
2021/01/01 00:33:19;;;;;;;66.83;38.47;;;;;;;;;;4403309;32;20322;-57
2021/01/01 00:35:44;;;;;;;89.47;52.10;;;;;;;;;;4402952;32;20205;-57
2021/01/01 00:38:10;;;;;;;92.87;55.43;;;;;;;;;;4402974;32;20383;-57
2021/01/01 00:40:35;;;;;;;96.13;55.73;;;;;;;;;;4402791;32;20233;-57
2021/01/01 00:43:01;;;;;;;109.80;62.30;;;;;;;;;;4402864;32;20764;-57
2021/01/01 00:45:27;;;;;;;90.50;51.57;;;;;;;;;;4401840;32;20293;-58
2021/01/01 00:47:52;;;;;;;70.97;42.90;;;;;;;;;;4403351;32;20284;-58
2021/01/01 00:50:18;;;;;;;94.57;54.50;;;;;;;;;;4402760;32;20383;-58
2021/01/01 00:52:43;;;;;;;116.87;62.47;;;;;;;;;;4405247;32;20324;-57
2021/01/01 00:55:09;;;;;;;104.83;60.53;;;;;;;;;;4417742;32;20237;-57
2021/01/01 00:57:35;;;;;;;104.60;61.37;;;;;;;;;;4417849;32;20309;-58
2021/01/01 01:00:00;;;;;;;114.27;60.60;;;;;;;;;;4417653;32;20419;-57
2021/01/01 01:02:26;;;;;;;97.73;54.37;;;;;;;;;;4416433;32;20320;-58
2021/01/01 01:04:52;;;;;;;103.17;57.60;;;;;;;;;;4416261;32;20255;-57
2021/01/01 01:07:17;;;;;;;144.80;80.80;;;;;;;;;;4417569;32;20321;-57
2021/01/01 01:09:43;;;;;;;145.33;79.50;;;;;;;;;;4417748;32;20312;-57
2021/01/01 01:12:09;;;;;;;120.47;69.10;;;;;;;;;;4417610;32;20329;-58
2021/01/01 01:14:35;;;;;;;126.87;72.73;;;;;;;;;;4417520;32;20665;-56
2021/01/01 01:17:01;;;;;;;129.90;75.50;;;;;;;;;;4417624;32;20329;-56
2021/01/01 01:19:26;;;;;;;145.10;79.13;;;;;;;;;;4417585;32;20626;-56
2021/01/01 01:21:52;;;;;;;116.37;60.80;;;;;;;;;;4416225;32;20344;-57
2021/01/01 01:24:18;;;;;;;111.13;61.07;;;;;;;;;;4417826;32;20821;-57
2021/01/01 01:26:44;;;;;;;100.87;53.17;;;;;;;;;;4416193;32;20757;-57
2021/01/01 01:29:09;;;;;;;97.90;52.53;;;;;;;;;;4417491;32;20243;-57
2021/01/01 01:31:34;;;;;;;108.40;52.73;;;;;;;;;;4417503;32;20292;-57
2021/01/01 01:34:00;;;;;;;93.67;51.10;;;;;;;;;;4415880;32;20245;-58
2021/01/01 01:36:26;;;;;;;118.27;61.23;;;;;;;;;;4417239;32;20751;-59
2021/01/01 01:38:51;;;;;;;112.00;61.27;;;;;;;;;;4416971;32;20364;-58
2021/01/01 01:41:16;;;;;;;88.00;48.47;;;;;;;;;;4417434;32;20312;-57
2021/01/01 01:43:42;;;;;;;99.17;52.70;;;;;;;;;;4417131;32;20294;-57
2021/01/01 01:46:08;;;;;;;108.20;55.63;;;;;;;;;;4415890;32;20308;-57
2021/01/01 01:48:37;;;;;;;83.63;47.73;;;;;;;;;;4416158;32;20270;-57
2021/01/01 01:51:03;;;;;;;86.67;45.87;;;;;;;;;;4417070;32;20638;-57
2021/01/01 01:53:33;;;;;;;81.63;43.17;;;;;;;;;;4410136;32;20802;-57
2021/01/01 01:56:00;;;;;;;67.93;41.63;;;;;;;;;;4400530;32;20252;-57
2021/01/01 01:58:26;;;;;;;76.27;42.43;;;;;;;;;;4401705;32;20724;-57
2021/01/01 02:00:58;;;;;;;77.23;41.97;;;;;;;;;;4400966;32;20206;-58
2021/01/01 02:03:25;;;;;;;82.80;46.17;;;;;;;;;;4400306;32;20343;-57
2021/01/01 02:05:51;;;;;;;83.53;47.60;;;;;;;;;;4401558;32;20210;-58
2021/01/01 02:08:17;;;;;;;77.20;44.60;;;;;;;;;;4401587;32;20284;-57
2021/01/01 02:10:43;;;;;;;80.23;44.00;;;;;;;;;;4401522;32;20664;-57
2021/01/01 02:13:10;;;;;;;91.77;52.80;;;;;;;;;;4401809;32;20710;-58
2021/01/01 02:15:35;;;;;;;102.10;56.50;;;;;;;;;;4401528;32;20739;-57
2021/01/01 02:18:01;;;;;;;111.70;63.20;;;;;;;;;;4402003;32;20295;-57
2021/01/01 02:20:26;;;;;;;142.20;77.60;;;;;;;;;;4401676;32;20234;-57
2021/01/01 02:22:52;;;;;;;138.47;75.53;;;;;;;;;;4400417;32;20324;-57
2021/01/01 02:25:17;;;;;;;121.90;73.27;;;;;;;;;;4401433;32;20634;-57
2021/01/01 02:27:43;;;;;;;132.13;74.03;;;;;;;;;;4401800;32;20373;-57
2021/01/01 02:30:09;;;;;;;127.70;72.20;;;;;;;;;;4401159;32;20566;-56
2021/01/01 02:32:35;;;;;;;119.73;64.77;;;;;;;;;;4400434;32;20387;-57
2021/01/01 02:35:01;;;;;;;130.60;70.93;;;;;;;;;;4401242;32;20252;-57
2021/01/01 02:37:27;;;;;;;151.77;68.77;;;;;;;;;;4400195;32;20800;-57
2021/01/01 02:39:53;;;;;;;133.37;67.87;;;;;;;;;;4401011;32;20221;-57
2021/01/01 02:42:19;;;;;;;120.30;66.13;;;;;;;;;;4401346;32;20682;-57
2021/01/01 02:44:46;;;;;;;113.07;64.97;;;;;;;;;;4400132;32;20512;-58
2021/01/01 02:47:14;;;;;;;124.70;65.83;;;;;;;;;;4401739;32;20664;-57
2021/01/01 02:49:39;;;;;;;125.47;68.07;;;;;;;;;;4400207;32;20331;-57
2021/01/01 02:52:05;;;;;;;109.47;59.20;;;;;;;;;;4401219;32;20359;-59
2021/01/01 02:54:30;;;;;;;97.00;54.73;;;;;;;;;;4412858;32;20327;-57
2021/01/01 02:56:56;;;;;;;86.77;44.87;;;;;;;;;;4416572;32;20217;-58
2021/01/01 02:59:21;;;;;;;89.03;46.80;;;;;;;;;;4415091;32;20249;-57
2021/01/01 03:01:47;;;;;;;130.43;66.10;;;;;;;;;;4416508;32;20330;-58
2021/01/01 03:04:13;;;;;;;163.20;80.83;;;;;;;;;;4416508;32;20258;-57
2021/01/01 03:06:39;;;;;;;196.37;91.27;;;;;;;;;;4416261;32;20396;-57
2021/01/01 03:09:05;;;;;;;177.97;82.93;;;;;;;;;;4416282;32;20518;-57
2021/01/01 03:11:31;;;;;;;126.63;63.07;;;;;;;;;;4416374;32;20343;-57
2021/01/01 03:13:57;;;;;;;157.53;76.80;;;;;;;;;;4417166;32;20299;-57
2021/01/01 03:16:22;;;;;;;150.80;73.70;;;;;;;;;;4419186;32;20284;-58
2021/01/01 03:18:48;;;;;;;159.47;74.27;;;;;;;;;;4419119;32;20290;-58
2021/01/01 03:21:13;;;;;;;161.60;80.70;;;;;;;;;;4417899;32;20340;-59
2021/01/01 03:23:39;;;;;;;138.87;70.20;;;;;;;;;;4417881;32;20304;-58
2021/01/01 03:26:05;;;;;;;123.63;61.80;;;;;;;;;;4419070;32;20287;-58
2021/01/01 03:28:30;;;;;;;128.67;61.20;;;;;;;;;;4419125;32;20284;-58
2021/01/01 03:30:56;;;;;;;82.03;43.20;;;;;;;;;;4418923;32;20232;-58
2021/01/01 03:33:21;;;;;;;103.53;51.73;;;;;;;;;;4417744;32;20844;-57
2021/01/01 03:35:48;;;;;;;100.73;50.67;;;;;;;;;;4417708;32;20696;-58
2021/01/01 03:38:13;;;;;;;113.57;58.47;;;;;;;;;;4418019;32;20479;-57
2021/01/01 03:40:39;;;;;;;102.63;56.60;;;;;;;;;;4418804;32;20478;-58
2021/01/01 03:43:04;;;;;;;97.27;54.33;;;;;;;;;;4418044;32;20303;-57
2021/01/01 03:45:30;;;;;;;88.70;51.17;;;;;;;;;;4418425;32;20263;-58
2021/01/01 03:47:55;;;;;;;98.70;53.37;;;;;;;;;;4418477;32;20296;-58
2021/01/01 03:50:21;;;;;;;91.30;51.00;;;;;;;;;;4417710;32;20233;-58
2021/01/01 03:52:46;;;;;;;95.17;52.83;;;;;;;;;;4415963;32;20360;-57
2021/01/01 03:55:12;;;;;;;97.37;48.80;;;;;;;;;;4403052;32;20312;-58
2021/01/01 03:57:37;;;;;;;95.33;55.17;;;;;;;;;;4403484;32;20288;-57
2021/01/01 04:00:07;;;;;;;94.17;53.90;;;;;;;;;;4403527;32;20403;-58
2021/01/01 04:02:33;;;;;;;101.33;55.50;;;;;;;;;;4404584;32;20213;-58
2021/01/01 04:04:58;;;;;;;90.60;53.30;;;;;;;;;;4404616;32;20654;-59
2021/01/01 04:07:24;;;;;;;92.73;51.93;;;;;;;;;;4404506;32;20323;-57
2021/01/01 04:09:49;;;;;;;85.03;47.53;;;;;;;;;;4404353;32;20677;-57
2021/01/01 04:12:15;;;;;;;92.07;50.37;;;;;;;;;;4403311;32;20304;-57
2021/01/01 04:14:40;;;;;;;114.97;62.00;;;;;;;;;;4404090;32;20252;-58
2021/01/01 04:17:06;;;;;;;101.13;57.10;;;;;;;;;;4404272;32;20336;-58
2021/01/01 04:19:31;;;;;;;80.40;40.60;;;;;;;;;;4404262;32;20276;-57
2021/01/01 04:21:56;;;;;;;46.67;27.63;;;;;;;;;;4404591;32;20272;-57
2021/01/01 04:24:22;;;;;;;50.47;28.93;;;;;;;;;;4403570;32;20241;-57
2021/01/01 04:26:47;;;;;;;48.60;28.93;;;;;;;;;;4402940;32;20304;-57
2021/01/01 04:29:13;;;;;;;68.67;38.20;;;;;;;;;;4404407;32;20340;-57
2021/01/01 04:31:39;;;;;;;43.13;24.07;;;;;;;;;;4404560;32;20338;-57
2021/01/01 04:34:06;;;;;;;47.40;25.73;;;;;;;;;;4403931;32;20369;-57
2021/01/01 04:36:32;;;;;;;101.43;49.63;;;;;;;;;;4402976;32;20251;-57
2021/01/01 04:38:58;;;;;;;112.90;58.70;;;;;;;;;;4404005;32;20344;-58
2021/01/01 04:41:24;;;;;;;123.97;65.70;;;;;;;;;;4404282;32;20333;-58
2021/01/01 04:43:53;;;;;;;120.63;64.43;;;;;;;;;;4403947;32;20331;-57
2021/01/01 04:46:19;;;;;;;114.40;63.10;;;;;;;;;;4402821;32;20256;-58
2021/01/01 04:48:45;;;;;;;98.37;55.17;;;;;;;;;;4402506;32;20225;-58
2021/01/01 04:51:12;;;;;;;124.63;65.90;;;;;;;;;;4403858;32;20224;-58
2021/01/01 04:53:39;;;;;;;107.93;58.63;;;;;;;;;;4411697;32;20217;-58
2021/01/01 04:56:06;;;;;;;94.17;54.43;;;;;;;;;;4417562;32;20241;-57
2021/01/01 04:58:32;;;;;;;94.13;54.93;;;;;;;;;;4418709;32;20308;-57
2021/01/01 05:00:57;;;;;;;92.07;52.27;;;;;;;;;;4418774;32;20231;-58
2021/01/01 05:03:23;;;;;;;104.97;57.47;;;;;;;;;;4419109;32;20296;-58
2021/01/01 05:05:52;;;;;;;116.93;61.37;;;;;;;;;;4417461;32;20233;-57
2021/01/01 05:08:19;;;;;;;110.27;61.53;;;;;;;;;;4418766;32;20227;-57
2021/01/01 05:10:45;;;;;;;103.00;62.83;;;;;;;;;;4418934;32;20213;-57
2021/01/01 05:13:19;;;;;;;84.73;50.73;;;;;;;;;;4418767;32;20231;-57
2021/01/01 05:15:48;;;;;;;91.10;49.77;;;;;;;;;;4417421;32;20251;-58
2021/01/01 05:18:17;;;;;;;70.33;40.47;;;;;;;;;;4418529;32;20305;-58
2021/01/01 05:20:44;;;;;;;82.87;41.37;;;;;;;;;;4418625;32;20208;-58
2021/01/01 05:23:29;;;;;;;68.80;40.77;;;;;;;;;;4418811;32;20642;-58
2021/01/01 05:26:14;;;;;;;86.50;51.20;;;;;;;;;;4418489;32;20202;-56
2021/01/01 05:28:48;;;;;;;82.13;43.40;;;;;;;;;;4418518;32;20208;-57
2021/01/01 05:31:14;;;;;;;74.23;44.63;;;;;;;;;;4418312;32;20306;-58
2021/01/01 05:33:42;;;;;;;71.47;44.17;;;;;;;;;;4418372;32;20213;-57
2021/01/01 05:36:08;;;;;;;72.40;44.07;;;;;;;;;;4417005;32;20308;-57
2021/01/01 05:38:37;;;;;;;71.00;42.37;;;;;;;;;;4418633;32;20264;-57
2021/01/01 05:41:03;;;;;;;69.17;42.33;;;;;;;;;;4418470;32;20666;-57
2021/01/01 05:43:29;;;;;;;83.40;48.03;;;;;;;;;;4418083;32;20209;-57
2021/01/01 05:46:09;;;;;;;81.90;48.17;;;;;;;;;;4418174;32;20235;-58
2021/01/01 05:48:35;;;;;;;75.77;45.53;;;;;;;;;;4418402;32;20646;-57
2021/01/01 05:51:05;;;;;;;102.67;57.50;;;;;;;;;;4416934;32;20287;-58
2021/01/01 05:53:31;;;;;;;85.03;48.77;;;;;;;;;;4410610;32;20565;-57
2021/01/01 05:56:06;;;;;;;89.47;52.37;;;;;;;;;;4402666;32;20222;-58
2021/01/01 05:58:31;;;;;;;114.73;57.80;;;;;;;;;;4402931;32;20418;-58
2021/01/01 06:00:58;;;;;;;77.80;42.83;;;;;;;;;;4402664;32;20633;-58
2021/01/01 06:03:25;;;;;;;63.43;39.43;;;;;;;;;;4402850;32;20299;-57
2021/01/01 06:05:58;;;;;;;64.90;38.13;;;;;;;;;;4402950;32;20233;-58
2021/01/01 06:08:29;;;;;;;81.90;48.27;;;;;;;;;;4403007;32;20402;-57
2021/01/01 06:11:05;;;;;;;86.90;48.70;;;;;;;;;;4402944;32;20201;-57
2021/01/01 06:13:33;;;;;;;71.80;39.87;;;;;;;;;;4402740;32;20229;-58
2021/01/01 06:16:01;;;;;;;70.30;39.63;;;;;;;;;;4401558;32;20962;-62
2021/01/01 06:18:31;;;;;;;70.30;40.67;;;;;;;;;;4402691;32;20193;-57
2021/01/01 06:21:04;;;;;;;73.23;41.87;;;;;;;;;;4402752;32;20196;-58
2021/01/01 06:23:40;;;;;;;81.17;46.37;;;;;;;;;;4403025;32;20209;-58
2021/01/01 06:26:07;;;;;;;71.63;41.87;;;;;;;;;;4403031;32;20280;-57
2021/01/01 06:28:35;;;;;;;126.47;70.23;;;;;;;;;;4402493;32;20240;-57
2021/01/01 06:31:02;;;;;;;75.00;44.90;;;;;;;;;;4402565;32;20227;-58
2021/01/01 06:33:28;;;;;;;83.03;47.40;;;;;;;;;;4402856;32;20241;-57
2021/01/01 06:35:54;;;;;;;101.13;52.03;;;;;;;;;;4402630;32;20745;-57
2021/01/01 06:38:42;;;;;;;120.77;60.07;;;;;;;;;;4402645;32;20302;-58
2021/01/01 06:41:14;;;;;;;143.97;81.07;;;;;;;;;;4401468;32;20639;-58
2021/01/01 06:43:55;;;;;;;157.70;88.67;;;;;;;;;;4401252;32;20225;-58
2021/01/01 06:46:37;;;;;;;151.10;84.40;;;;;;;;;;4402852;32;20257;-57
2021/01/01 06:49:07;;;;;;;123.30;68.60;;;;;;;;;;4405067;32;20374;-57
2021/01/01 06:51:34;;;;;;;131.80;71.83;;;;;;;;;;4405934;32;20658;-57
2021/01/01 06:54:15;;;;;;;130.33;70.60;;;;;;;;;;4415801;32;20252;-57
2021/01/01 06:56:43;;;;;;;116.97;65.90;;;;;;;;;;4421142;32;20249;-57
2021/01/01 06:59:10;;;;;;;112.77;64.87;;;;;;;;;;4420848;32;20577;-57
2021/01/01 07:01:48;;;;;;;100.07;58.07;;;;;;;;;;4420978;32;20205;-57
2021/01/01 07:04:13;;;;;;;77.83;49.57;;;;;;;;;;4420959;32;20317;-57
2021/01/01 07:06:41;;;;;;;75.30;45.03;;;;;;;;;;4419605;32;20660;-58
2021/01/01 07:09:08;;;;;;;144.77;69.30;;;;;;;;;;4420485;32;20267;-58
2021/01/01 07:11:35;;;;;;;76.43;44.33;;;;;;;;;;4420849;32;20779;-58
2021/01/01 07:14:08;;;;;;;92.20;48.13;;;;;;;;;;4420517;32;20414;-58
2021/01/01 07:16:42;;;;;;;88.83;53.53;;;;;;;;;;4420596;32;20351;-57
2021/01/01 07:19:08;;;;;;;95.53;55.67;;;;;;;;;;4419171;32;20229;-57
2021/01/01 07:21:34;;;;;;;104.50;60.47;;;;;;;;;;4420722;32;20291;-58
2021/01/01 07:24:00;;;;;;;94.00;59.37;;;;;;;;;;4420508;32;20339;-58
2021/01/01 07:26:30;;;;;;;121.67;70.40;;;;;;;;;;4419148;32;20362;-58
2021/01/01 07:28:59;;;;;;;117.00;64.37;;;;;;;;;;4420245;32;20542;-57
2021/01/01 07:31:24;;;;;;;125.87;74.33;;;;;;;;;;4420450;32;20616;-57
2021/01/01 07:33:50;;;;;;;114.63;68.27;;;;;;;;;;4420268;32;20228;-58
2021/01/01 07:36:16;;;;;;;113.57;63.57;;;;;;;;;;4418897;32;20812;-58
2021/01/01 07:38:45;;;;;;;115.17;70.13;;;;;;;;;;4420271;32;20229;-57
2021/01/01 07:41:11;;;;;;;156.80;90.63;;;;;;;;;;4420034;32;20258;-57
2021/01/01 07:43:38;;;;;;;162.33;100.60;;;;;;;;;;4420154;32;20676;-57
2021/01/01 07:46:06;;;;;;;160.17;100.50;;;;;;;;;;4419829;32;20291;-58
2021/01/01 07:48:33;;;;;;;144.43;89.93;;;;;;;;;;4419855;32;20343;-59
2021/01/01 07:51:00;;;;;;;157.57;101.60;;;;;;;;;;4419862;32;20197;-57
2021/01/01 07:53:25;;;;;;;136.23;83.60;;;;;;;;;;4413097;32;20201;-57
2021/01/01 07:55:51;;;;;;;183.40;100.53;;;;;;;;;;4404503;32;20279;-57
2021/01/01 07:58:17;;;;;;;331.07;161.63;;;;;;;;;;4404611;32;20315;-56
2021/01/01 08:00:47;;;;;;;172.07;96.93;;;;;;;;;;4403708;32;20630;-58
2021/01/01 08:03:14;;;;;;;187.97;98.40;;;;;;;;;;4405087;32;20205;-59
2021/01/01 08:05:44;;;;;;;197.23;106.13;;;;;;;;;;4404303;32;20515;-58
2021/01/01 08:08:15;;;;;;;138.23;80.43;;;;;;;;;;4403216;32;20680;-58
2021/01/01 08:10:43;;;;;;;169.07;95.70;;;;;;;;;;4404798;32;20262;-58
2021/01/01 08:13:28;;;;;;;225.53;134.77;;;;;;;;;;4403296;32;20229;-58
2021/01/01 08:15:56;;;;;;;257.87;145.63;;;;;;;;;;4404620;32;20281;-59
2021/01/01 08:18:31;;;;;;;179.13;106.83;;;;;;;;;;4403123;32;20304;-58
2021/01/01 08:21:01;;;;;;;136.93;75.90;;;;;;;;;;4404424;32;20298;-59
2021/01/01 08:23:42;;;;;;;141.37;74.97;;;;;;;;;;4404511;32;20306;-59
2021/01/01 08:26:08;;;;;;;248.83;120.77;;;;;;;;;;4404724;32;20232;-58
2021/01/01 08:28:35;;;;;;;67.20;41.73;;;;;;;;;;4404316;32;20642;-59
2021/01/01 08:31:07;;;;;;;72.17;38.17;;;;;;;;;;4404072;32;20216;-58
2021/01/01 08:33:37;;;;;;;49.50;31.70;;;;;;;;;;4404378;32;20626;-58
2021/01/01 08:36:12;;;;;;;76.17;45.60;;;;;;;;;;4403979;32;20285;-58
2021/01/01 08:38:42;;;;;;;75.27;46.60;;;;;;;;;;4404264;32;20209;-58
2021/01/01 08:41:15;;;;;;;93.97;55.70;;;;;;;;;;4402967;32;20217;-58
2021/01/01 08:43:41;;;;;;;70.30;44.17;;;;;;;;;;4404148;32;20213;-58
2021/01/01 08:46:14;;;;;;;70.00;42.67;;;;;;;;;;4404520;32;20280;-58
2021/01/01 08:48:39;;;;;;;94.60;56.30;;;;;;;;;;4403892;32;20225;-56
2021/01/01 08:51:05;;;;;;;79.60;46.47;;;;;;;;;;4404054;32;20649;-56
2021/01/01 08:53:38;;;;;;;94.73;53.40;;;;;;;;;;4410875;32;20704;-57
2021/01/01 08:56:03;;;;;;;89.03;50.43;;;;;;;;;;4418822;32;20307;-58
2021/01/01 08:58:29;;;;;;;445.70;247.93;;;;;;;;;;4419258;32;20306;-58
2021/01/01 09:00:54;;;;;;;142.63;81.07;;;;;;;;;;4418855;32;20201;-57
2021/01/01 09:03:23;;;;;;;96.33;57.43;;;;;;;;;;4418789;32;20325;-57
2021/01/01 09:05:53;;;;;;;87.40;52.93;;;;;;;;;;4418643;32;20205;-58
2021/01/01 09:08:23;;;;;;;76.50;48.43;;;;;;;;;;4417563;32;20205;-57
2021/01/01 09:10:49;;;;;;;66.83;41.77;;;;;;;;;;4417380;32;20652;-57
2021/01/01 09:13:18;;;;;;;71.60;42.43;;;;;;;;;;4418958;32;20261;-58
2021/01/01 09:15:45;;;;;;;51.17;31.23;;;;;;;;;;4418530;32;20377;-58
2021/01/01 09:18:11;;;;;;;36.50;22.07;;;;;;;;;;4419076;32;20685;-57
2021/01/01 09:20:40;;;;;;;35.10;20.83;;;;;;;;;;4417257;32;20650;-57
2021/01/01 09:23:07;;;;;;;33.67;20.60;;;;;;;;;;4418665;32;20695;-58
2021/01/01 09:25:32;;;;;;;38.40;24.17;;;;;;;;;;4417231;32;20229;-58
2021/01/01 09:27:59;;;;;;;40.30;21.47;;;;;;;;;;4418416;32;20310;-57
2021/01/01 09:30:27;;;;;;;26.43;17.70;;;;;;;;;;4417011;32;20229;-57
2021/01/01 09:32:55;;;;;;;31.20;16.80;;;;;;;;;;4418253;32;20189;-57
2021/01/01 09:35:21;;;;;;;43.63;24.43;;;;;;;;;;4418372;32;20638;-58
2021/01/01 09:37:51;;;;;;;99.13;55.13;;;;;;;;;;4417186;32;20322;-58
2021/01/01 09:40:18;;;;;;;38.77;21.83;;;;;;;;;;4418577;32;20577;-58
2021/01/01 09:42:44;;;;;;;39.23;22.37;;;;;;;;;;4416975;32;20272;-58
2021/01/01 09:45:11;;;;;;;45.17;25.23;;;;;;;;;;4418148;32;20294;-58
2021/01/01 09:47:36;;;;;;;33.87;19.77;;;;;;;;;;4418092;32;20247;-58
2021/01/01 09:50:03;;;;;;;29.53;17.73;;;;;;;;;;4416821;32;20304;-57
2021/01/01 09:52:29;;;;;;;36.50;22.23;;;;;;;;;;4416535;32;20294;-58
2021/01/01 09:54:55;;;;;;;37.70;20.90;;;;;;;;;;4401688;32;20233;-56
2021/01/01 09:57:20;;;;;;;43.43;21.40;;;;;;;;;;4402759;32;20670;-58
2021/01/01 09:59:46;;;;;;;51.33;26.13;;;;;;;;;;4403032;32;20257;-56
2021/01/01 10:02:11;;;;;;;37.67;21.80;;;;;;;;;;4402898;32;20276;-56
2021/01/01 10:04:36;;;;;;;37.17;18.47;;;;;;;;;;4402550;32;20244;-57
2021/01/01 10:07:02;;;;;;;29.97;16.47;;;;;;;;;;4402794;32;20413;-56
2021/01/01 10:09:27;;;;;;;28.50;19.37;;;;;;;;;;4402719;32;20344;-56
2021/01/01 10:11:56;;;;;;;30.90;16.07;;;;;;;;;;4402759;32;20349;-56
2021/01/01 10:14:22;;;;;;;50.47;35.83;;;;;;;;;;4402774;32;20646;-58
2021/01/01 10:16:48;;;;;;;31.07;18.60;;;;;;;;;;4402850;32;20299;-58
2021/01/01 10:19:15;;;;;;;28.13;16.00;;;;;;;;;;4402548;32;20304;-58
2021/01/01 10:21:40;;;;;;;29.90;18.20;;;;;;;;;;4402486;32;20201;-58
2021/01/01 10:24:06;;;;;;;28.40;19.23;;;;;;;;;;4402327;32;20282;-58
2021/01/01 10:26:31;;;;;;;25.40;15.97;;;;;;;;;;4402515;32;20272;-59
2021/01/01 10:28:57;;;;;;;28.73;17.90;;;;;;;;;;4402657;32;20247;-56
2021/01/01 10:31:24;;;;;;;31.77;18.90;;;;;;;;;;4401504;32;20291;-57
2021/01/01 10:33:49;;;;;;;34.37;18.53;;;;;;;;;;4401193;32;20221;-56
2021/01/01 10:36:15;;;;;;;33.37;20.17;;;;;;;;;;4401480;32;20312;-56
2021/01/01 10:38:41;;;;;;;21.07;14.83;;;;;;;;;;4402477;32;20221;-56
2021/01/01 10:41:13;;;;;;;24.07;15.37;;;;;;;;;;4402636;32;20296;-57
2021/01/01 10:43:40;;;;;;;31.07;14.87;;;;;;;;;;4402553;32;20646;-55
2021/01/01 10:46:05;;;;;;;22.93;13.53;;;;;;;;;;4401193;32;20301;-56
2021/01/01 10:48:31;;;;;;;27.93;16.73;;;;;;;;;;4402275;32;20298;-56
2021/01/01 10:50:56;;;;;;;26.63;16.50;;;;;;;;;;4401242;32;20577;-56
2021/01/01 10:53:22;;;;;;;20.87;13.57;;;;;;;;;;4408601;32;20680;-57
2021/01/01 10:55:50;;;;;;;22.33;12.80;;;;;;;;;;4417296;32;20237;-57
2021/01/01 10:58:26;;;;;;;32.40;20.10;;;;;;;;;;4416354;32;20691;-57
2021/01/01 11:00:52;;;;;;;30.03;18.47;;;;;;;;;;4418016;32;20227;-56
2021/01/01 11:03:18;;;;;;;31.00;16.77;;;;;;;;;;4416361;32;20229;-57
2021/01/01 11:05:43;;;;;;;21.13;14.80;;;;;;;;;;4416182;32;20342;-57
2021/01/01 11:08:10;;;;;;;27.43;16.43;;;;;;;;;;4417396;32;20395;-57
2021/01/01 11:10:36;;;;;;;24.20;15.30;;;;;;;;;;4417398;32;20220;-59
2021/01/01 11:13:04;;;;;;;19.93;13.87;;;;;;;;;;4417447;32;20324;-56
2021/01/01 12:22:50;;;;;;;19.27;12.27;;;;;;;;;;4404044;32;20268;-58
2021/01/01 12:25:15;;;;;;;30.70;19.90;;;;;;;;;;4404045;32;20612;-58
2021/01/01 12:27:42;;;;;;;66.63;42.17;;;;;;;;;;4404474;32;20453;-56
2021/01/01 12:30:10;;;;;;;67.03;33.23;;;;;;;;;;4403019;32;20233;-56
2021/01/01 12:32:42;;;;;;;28.07;15.80;;;;;;;;;;4404271;32;20217;-56
2021/01/01 12:35:10;;;;;;;33.23;21.07;;;;;;;;;;4403772;32;20237;-56
2021/01/01 12:37:37;;;;;;;38.77;18.10;;;;;;;;;;4404297;32;20235;-57
2021/01/01 12:40:04;;;;;;;29.67;17.60;;;;;;;;;;4402937;32;20237;-56
2021/01/01 12:42:29;;;;;;;33.50;19.53;;;;;;;;;;4403895;32;20603;-56
2021/01/01 12:44:55;;;;;;;39.00;20.63;;;;;;;;;;4404054;32;20259;-56
2021/01/01 12:47:20;;;;;;;28.60;16.30;;;;;;;;;;4403512;32;20296;-56
2021/01/01 12:49:46;;;;;;;14.07;8.03;;;;;;;;;;4403589;32;20650;-56
2021/01/01 12:52:12;;;;;;;14.03;7.13;;;;;;;;;;4404233;32;20268;-57
2021/01/01 12:54:38;;;;;;;18.27;8.07;;;;;;;;;;4417332;32;20248;-57
2021/01/01 12:57:04;;;;;;;9.40;5.27;;;;;;;;;;4417786;32;20850;-56
2021/01/01 12:59:30;;;;;;;13.97;8.17;;;;;;;;;;4418892;32;20256;-56
2021/01/01 13:01:56;;;;;;;10.93;5.73;;;;;;;;;;4419290;32;20302;-56
2021/01/01 13:04:21;;;;;;;15.97;6.57;;;;;;;;;;4418958;32;20423;-56
2021/01/01 13:06:47;;;;;;;12.73;6.67;;;;;;;;;;4418924;32;20405;-56
2021/01/01 13:09:12;;;;;;;24.13;13.60;;;;;;;;;;4418562;32;20578;-56
2021/01/01 13:11:42;;;;;;;21.10;12.40;;;;;;;;;;4418504;32;20649;-56
2021/01/01 13:14:08;;;;;;;15.33;9.70;;;;;;;;;;4418505;32;20363;-56
2021/01/01 13:16:33;;;;;;;22.67;12.67;;;;;;;;;;4417647;32;20319;-57
2021/01/01 13:18:59;;;;;;;29.23;16.53;;;;;;;;;;4418552;32;20271;-58
2021/01/01 13:21:35;;;;;;;13.27;8.33;;;;;;;;;;4418822;32;20657;-57
2021/01/01 13:24:03;;;;;;;22.63;13.03;;;;;;;;;;4417351;32;20232;-57
2021/01/01 13:26:29;;;;;;;20.13;12.30;;;;;;;;;;4418164;32;20235;-58
2021/01/01 13:28:56;;;;;;;62.03;33.63;;;;;;;;;;4417961;32;20729;-57
2021/01/01 13:31:22;;;;;;;19.00;12.53;;;;;;;;;;4417422;32;20209;-58
2021/01/01 13:33:52;;;;;;;15.60;9.40;;;;;;;;;;4416838;32;20305;-58
2021/01/01 13:36:19;;;;;;;17.23;9.40;;;;;;;;;;4416048;32;20304;-58
2021/01/01 13:38:46;;;;;;;22.23;9.37;;;;;;;;;;4415908;32;20241;-58
2021/01/01 13:41:15;;;;;;;17.37;9.33;;;;;;;;;;4417454;32;20201;-58
2021/01/01 13:43:41;;;;;;;23.67;10.57;;;;;;;;;;4417186;32;20356;-58
2021/01/01 13:46:08;;;;;;;28.00;13.57;;;;;;;;;;4415809;32;20334;-58
2021/01/01 13:48:35;;;;;;;13.07;7.73;;;;;;;;;;4415910;32;20451;-57
2021/01/01 13:51:01;;;;;;;12.57;6.57;;;;;;;;;;4416840;32;20926;-57
2021/01/01 13:53:26;;;;;;;13.13;7.60;;;;;;;;;;4410198;32;20280;-57
2021/01/01 13:55:52;;;;;;;12.00;5.97;;;;;;;;;;4401468;32;20220;-56
2021/01/01 13:58:18;;;;;;;22.37;9.23;;;;;;;;;;4400278;32;20339;-58
2021/01/01 14:00:53;;;;;;;11.93;6.77;;;;;;;;;;4401695;32;20679;-57
2021/01/01 14:03:19;;;;;;;7.67;4.07;;;;;;;;;;4402007;32;20227;-57
2021/01/01 14:05:48;;;;;;;8.80;4.13;;;;;;;;;;4401651;32;20315;-57
2021/01/01 14:08:18;;;;;;;14.93;7.93;;;;;;;;;;4400700;32;20296;-58
2021/01/01 14:10:44;;;;;;;15.13;9.13;;;;;;;;;;4401439;32;20272;-58
2021/01/01 14:13:10;;;;;;;19.57;11.77;;;;;;;;;;4400385;32;20253;-58
2021/01/01 14:15:36;;;;;;;24.70;14.03;;;;;;;;;;4401663;32;20275;-57
2021/01/01 14:18:02;;;;;;;26.17;13.67;;;;;;;;;;4401957;32;20296;-58
2021/01/01 14:20:27;;;;;;;23.67;10.93;;;;;;;;;;4401440;32;20225;-57
2021/01/01 14:22:53;;;;;;;19.37;9.13;;;;;;;;;;4401744;32;20749;-57
2021/01/01 14:25:18;;;;;;;14.37;8.27;;;;;;;;;;4401106;32;20389;-57
2021/01/01 14:27:44;;;;;;;38.43;20.03;;;;;;;;;;4401213;32;20637;-57
2021/01/01 14:30:10;;;;;;;71.33;40.50;;;;;;;;;;4401273;32;20248;-58
2021/01/01 14:32:37;;;;;;;60.03;35.37;;;;;;;;;;4400051;32;20241;-57
2021/01/01 14:35:09;;;;;;;109.53;53.20;;;;;;;;;;4401509;32;20229;-57
2021/01/01 14:37:35;;;;;;;71.00;35.90;;;;;;;;;;4401265;32;20315;-57
2021/01/01 14:40:00;;;;;;;61.23;30.37;;;;;;;;;;4400030;32;20233;-57
2021/01/01 14:42:27;;;;;;;69.13;39.57;;;;;;;;;;4400881;32;20272;-56
2021/01/01 14:44:53;;;;;;;53.23;35.67;;;;;;;;;;4400877;32;20726;-57
2021/01/01 14:47:18;;;;;;;108.57;60.03;;;;;;;;;;4401062;32;20363;-58
2021/01/01 14:49:44;;;;;;;44.70;26.80;;;;;;;;;;4399735;32;20332;-58
2021/01/01 14:52:09;;;;;;;41.60;26.90;;;;;;;;;;4399778;32;20323;-57
2021/01/01 14:54:34;;;;;;;39.27;21.60;;;;;;;;;;4414714;32;20586;-57
2021/01/01 14:57:00;;;;;;;42.87;23.70;;;;;;;;;;4415983;32;20304;-58
2021/01/01 14:59:26;;;;;;;94.40;48.87;;;;;;;;;;4416161;32;20292;-59
2021/01/01 15:01:51;;;;;;;52.60;31.67;;;;;;;;;;4414886;32;20453;-58
2021/01/01 15:04:17;;;;;;;67.07;38.23;;;;;;;;;;4416209;32;20589;-57
2021/01/01 15:06:42;;;;;;;79.07;48.40;;;;;;;;;;4416460;32;20674;-58
2021/01/01 15:09:07;;;;;;;100.83;54.17;;;;;;;;;;4417172;32;20253;-57
2021/01/01 15:11:33;;;;;;;90.60;52.00;;;;;;;;;;4418868;32;20311;-59
2021/01/01 15:13:58;;;;;;;92.03;49.80;;;;;;;;;;4419249;32;20744;-58
2021/01/01 15:16:24;;;;;;;100.07;59.77;;;;;;;;;;4419153;32;20751;-58
2021/01/01 15:18:49;;;;;;;81.30;44.37;;;;;;;;;;4418957;32;20280;-58
2021/01/01 15:21:15;;;;;;;66.57;41.37;;;;;;;;;;4419319;32;20295;-57